Time;durP1;ratioP1;P1;durP2;ratioP2;P2;SDS_P1;SDS_P2;PMS_P1;PMS_P2;Temp;Humidity;BMP_temperature;BMP_pressure;BME280_temperature;BME280_humidity;BME280_pressure;Samples;Min_cycle;Max_cycle;Signal;HPM_P1;HPM_P2
2023/03/31 00:01:10;;;;;;;20.15;6.03;;;;;;;9.21;100.00;100276.81;5016457;28;1045245;-57
2023/03/31 00:03:37;;;;;;;18.58;6.30;;;;;;;9.23;100.00;100270.03;5054517;28;20044;-57
2023/03/31 00:06:04;;;;;;;18.95;6.28;;;;;;;9.20;100.00;100269.94;5054200;28;20053;-57
2023/03/31 00:08:34;;;;;;;19.80;5.47;;;;;;;9.20;100.00;100266.50;5054242;28;20027;-54
2023/03/31 00:11:01;;;;;;;22.83;5.85;;;;;;;9.17;100.00;100249.28;5054253;28;20039;-56
2023/03/31 00:13:27;;;;;;;19.45;5.45;;;;;;;9.17;100.00;100236.44;5053751;28;20098;-56
2023/03/31 00:16:02;;;;;;;15.90;4.75;;;;;;;9.18;100.00;100234.72;5054306;28;20055;-55
2023/03/31 00:18:28;;;;;;;18.95;4.95;;;;;;;9.17;100.00;100223.59;5054162;28;20043;-56
2023/03/31 00:20:56;;;;;;;14.18;4.78;;;;;;;9.18;100.00;100222.75;5053148;28;20075;-56
2023/03/31 00:23:26;;;;;;;14.77;4.82;;;;;;;9.19;100.00;100216.78;5054339;28;20033;-56
2023/03/31 00:25:52;;;;;;;21.80;5.50;;;;;;;9.18;100.00;100209.91;5054175;28;20035;-56
2023/03/31 00:28:17;;;;;;;18.13;5.00;;;;;;;9.18;100.00;100203.88;5053213;28;20021;-56
2023/03/31 00:30:42;;;;;;;16.70;4.53;;;;;;;9.16;100.00;100198.69;5053080;28;20553;-56
2023/03/31 00:33:08;;;;;;;16.20;4.65;;;;;;;9.15;100.00;100194.38;5053832;28;20021;-56
2023/03/31 00:35:37;;;;;;;17.98;4.65;;;;;;;9.10;100.00;100190.81;5053123;28;20532;-56
2023/03/31 00:38:04;;;;;;;16.25;4.53;;;;;;;9.09;100.00;100189.13;5053855;28;20075;-56
2023/03/31 00:40:30;;;;;;;16.27;4.45;;;;;;;9.06;100.00;100189.03;5053837;28;20379;-56
2023/03/31 00:42:55;;;;;;;15.52;4.00;;;;;;;9.06;100.00;100183.88;5053026;28;20516;-56
2023/03/31 00:45:26;;;;;;;15.13;4.45;;;;;;;9.04;100.00;100172.72;5053781;28;20025;-55
2023/03/31 00:48:15;;;;;;;17.35;5.18;;;;;;;9.03;100.00;100169.25;5053686;28;20045;-55
2023/03/31 00:50:49;;;;;;;17.80;4.28;;;;;;;9.02;100.00;100162.38;5053107;28;20446;-56
2023/03/31 00:53:18;;;;;;;18.45;4.40;;;;;;;9.01;100.00;100159.75;5053318;28;20051;-55
2023/03/31 00:55:53;;;;;;;17.73;4.60;;;;;;;9.03;100.00;100152.97;5052734;28;20021;-56
2023/03/31 00:58:21;;;;;;;16.35;4.28;;;;;;;9.02;100.00;100148.66;5053426;28;20381;-56
2023/03/31 01:00:47;;;;;;;;;;;;;;;9.06;100.00;100148.78;5053590;28;20554;-55
2023/03/31 01:03:14;;;;;;;16.30;4.03;;;;;;;9.06;100.00;100147.91;5052504;28;20278;-56
2023/03/31 01:05:50;;;;;;;18.95;4.05;;;;;;;9.07;100.00;100139.34;5053506;28;20029;-56
2023/03/31 01:08:18;;;;;;;20.45;4.63;;;;;;;9.13;100.00;100139.50;5052988;28;20024;-56
2023/03/31 01:10:49;;;;;;;15.02;3.70;;;;;;;9.14;100.00;100130.97;5052669;28;20033;-55
2023/03/31 01:13:15;;;;;;;17.20;3.55;;;;;;;9.16;100.00;100134.44;5053173;28;20035;-55
2023/03/31 01:15:42;;;;;;;17.35;3.80;;;;;;;9.16;100.00;100131.00;5052942;28;20029;-56
2023/03/31 01:18:11;;;;;;;19.27;4.05;;;;;;;9.18;100.00;100121.59;5052358;28;20076;-55
2023/03/31 01:21:13;;;;;;;20.63;4.22;;;;;;;9.21;100.00;100114.84;5053048;28;20464;-55
2023/03/31 01:24:06;;;;;;;15.98;4.43;;;;;;;9.25;100.00;100114.94;5052528;28;20021;-56
2023/03/31 01:27:14;;;;;;;19.27;3.75;;;;;;;9.28;100.00;100102.13;5053076;28;20036;-56
2023/03/31 01:29:50;;;;;;;23.08;4.57;;;;;;;9.29;100.00;100104.72;5052999;28;20017;-56
2023/03/31 01:32:34;;;;;;;20.75;4.13;;;;;;;9.27;100.00;100091.00;5052156;28;20039;-55
2023/03/31 01:35:26;;;;;;;17.60;3.67;;;;;;;9.27;100.00;100091.00;5052555;28;20404;-56
2023/03/31 01:37:55;;;;;;;14.40;3.63;;;;;;;9.23;100.00;100084.91;5052312;28;20127;-56
2023/03/31 01:40:32;;;;;;;13.18;3.80;;;;;;;9.21;100.00;100081.41;5052808;28;20564;-56
2023/03/31 01:43:20;;;;;;;16.08;4.57;;;;;;;9.21;100.00;100075.41;5052581;28;20036;-56
2023/03/31 01:46:09;;;;;;;18.08;4.40;;;;;;;9.20;100.00;100064.25;5052100;28;20021;-56
2023/03/31 01:48:57;;;;;;;18.80;4.55;;;;;;;9.20;100.00;100068.53;5052727;28;20457;-56
2023/03/31 01:51:35;;;;;;;19.05;4.47;;;;;;;9.18;100.00;100053.06;5052528;28;20037;-56
2023/03/31 01:54:06;;;;;;;25.17;4.60;;;;;;;9.19;100.00;100052.25;5052106;28;20032;-56
2023/03/31 01:56:37;;;;;;;22.75;5.07;;;;;;;9.19;100.00;100043.66;5052865;28;20068;-56
2023/03/31 01:59:37;;;;;;;22.63;5.15;;;;;;;9.21;100.00;100035.13;5051802;28;20028;-56
2023/03/31 02:02:37;;;;;;;21.20;5.30;;;;;;;9.22;100.00;100026.59;5049036;28;20052;-56
2023/03/31 02:05:10;;;;;;;24.25;5.30;;;;;;;9.19;100.00;100025.66;5043600;28;20037;-56
2023/03/31 02:07:43;;;;;;;21.45;5.30;;;;;;;9.17;100.00;100014.47;5052252;28;20025;-57
2023/03/31 02:10:11;;;;;;;18.30;4.32;;;;;;;9.18;100.00;99998.19;5052077;28;20485;-56
2023/03/31 02:12:40;;;;;;;17.50;4.05;;;;;;;9.17;100.00;99992.19;5052268;28;20028;-55
2023/03/31 02:15:10;;;;;;;18.73;3.78;;;;;;;9.18;100.00;99993.06;5051729;28;20468;-56
2023/03/31 02:17:39;;;;;;;15.10;3.97;;;;;;;9.16;100.00;99985.31;5052612;28;20025;-55
2023/03/31 02:20:10;;;;;;;19.35;4.10;;;;;;;9.14;100.00;99970.69;5051306;28;20519;-56
2023/03/31 02:22:40;;;;;;;18.38;3.90;;;;;;;9.11;100.00;99963.78;5052823;28;20079;-56
2023/03/31 02:25:10;;;;;;;20.75;4.43;;;;;;;9.10;100.00;99958.63;5052191;28;20071;-56
2023/03/31 02:27:41;;;;;;;19.67;4.03;;;;;;;9.06;100.00;99942.25;5051617;28;20025;-56
2023/03/31 02:30:07;;;;;;;19.20;4.55;;;;;;;9.07;100.00;99933.72;5052248;28;20029;-56
2023/03/31 02:32:39;;;;;;;22.38;4.53;;;;;;;9.03;100.00;99922.50;5052389;28;20040;-56
2023/03/31 02:35:09;;;;;;;20.08;4.82;;;;;;;9.04;100.00;99919.09;5051572;28;20048;-56
2023/03/31 02:37:34;;;;;;;21.95;5.25;;;;;;;9.03;100.00;99916.50;5052291;28;20036;-55
2023/03/31 02:40:06;;;;;;;22.70;5.05;;;;;;;9.02;100.00;99909.63;5051671;28;20025;-56
2023/03/31 02:42:32;;;;;;;20.92;4.55;;;;;;;9.03;100.00;99901.09;5052017;28;20025;-56
2023/03/31 02:45:02;;;;;;;24.30;5.25;;;;;;;9.00;100.00;99901.00;5052070;28;20064;-56
2023/03/31 02:47:28;;;;;;;26.15;4.88;;;;;;;8.99;100.00;99883.88;5052186;28;20021;-56
2023/03/31 02:49:58;;;;;;;26.85;5.18;;;;;;;8.98;100.00;99866.72;5051588;28;20017;-55
2023/03/31 02:52:38;;;;;;;23.30;4.93;;;;;;;8.98;100.00;99861.56;5052263;28;20033;-56
2023/03/31 02:55:32;;;;;;;25.52;5.68;;;;;;;8.99;100.00;99855.59;5054046;28;20029;-56
2023/03/31 02:58:33;;;;;;;28.85;6.15;;;;;;;8.98;100.00;99839.28;5055409;28;20474;-56
2023/03/31 03:01:24;;;;;;;22.63;5.78;;;;;;;8.99;100.00;99838.47;5054950;28;20032;-56
2023/03/31 03:04:16;;;;;;;24.33;6.07;;;;;;;8.98;100.00;99820.44;5054083;28;20086;-56
2023/03/31 03:06:52;;;;;;;30.02;5.95;;;;;;;8.97;100.00;99823.84;5047329;28;20033;-55
2023/03/31 03:09:56;;;;;;;24.58;5.88;;;;;;;8.99;100.00;99810.19;5054610;28;20029;-57
2023/03/31 03:12:32;;;;;;;28.02;6.10;;;;;;;8.98;100.00;99799.91;5047524;28;20072;-56
2023/03/31 03:15:17;;;;;;;24.33;6.30;;;;;;;9.01;100.00;99807.66;5055012;28;20075;-56
2023/03/31 03:17:47;;;;;;;23.30;5.45;;;;;;;9.00;100.00;99808.47;5055117;28;20036;-56
2023/03/31 03:20:15;;;;;;;29.02;6.57;;;;;;;8.97;100.00;99804.16;5055267;28;20678;-56
2023/03/31 03:22:41;;;;;;;24.08;6.10;;;;;;;8.97;100.00;99801.56;5055054;28;20484;-55
2023/03/31 03:25:09;;;;;;;28.55;6.00;;;;;;;8.99;100.00;99801.63;5054353;28;20460;-55
2023/03/31 03:27:35;;;;;;;30.33;6.10;;;;;;;8.98;100.00;99793.03;5055208;28;20383;-56
2023/03/31 03:30:02;;;;;;;27.20;6.10;;;;;;;8.99;100.00;99786.22;5054560;28;20516;-56
2023/03/31 03:32:28;;;;;;;29.13;6.55;;;;;;;8.97;100.00;99790.44;5054681;28;20465;-55
2023/03/31 03:34:53;;;;;;;25.83;6.15;;;;;;;8.96;100.00;99788.72;5055242;28;20036;-56
2023/03/31 03:37:18;;;;;;;24.63;5.88;;;;;;;8.97;100.00;99777.59;5054354;28;20021;-56
2023/03/31 03:39:44;;;;;;;30.42;5.95;;;;;;;8.97;100.00;99770.75;5055018;28;20476;-56
2023/03/31 03:42:09;;;;;;;24.38;5.40;;;;;;;8.97;100.00;99769.88;5054647;28;20033;-56
2023/03/31 03:44:34;;;;;;;27.58;5.90;;;;;;;8.96;100.00;99756.19;5054174;28;20049;-56
2023/03/31 03:47:00;;;;;;;27.90;5.45;;;;;;;8.95;100.00;99754.44;5054750;28;20100;-55
2023/03/31 03:49:25;;;;;;;27.85;5.55;;;;;;;8.95;100.00;99743.28;5054808;28;20133;-55
2023/03/31 03:51:50;;;;;;;27.20;5.43;;;;;;;8.94;100.00;99731.28;5054093;28;20044;-55
2023/03/31 03:54:15;;;;;;;23.20;4.70;;;;;;;8.93;100.00;99727.00;5054304;28;20056;-56
2023/03/31 03:56:41;;;;;;;27.02;5.00;;;;;;;8.93;100.00;99719.28;5054572;28;20025;-56
2023/03/31 03:59:06;;;;;;;20.15;5.28;;;;;;;8.91;100.00;99716.69;5053545;28;20031;-56
2023/03/31 04:01:31;;;;;;;24.60;4.78;;;;;;;8.89;100.00;99711.50;5054534;28;20041;-56
2023/03/31 04:03:57;;;;;;;25.23;4.90;;;;;;;8.87;100.00;99702.91;5054062;28;20040;-56
2023/03/31 04:06:22;;;;;;;18.88;4.20;;;;;;;8.86;100.00;99697.75;5052712;28;20029;-56
2023/03/31 04:08:47;;;;;;;20.92;4.90;;;;;;;8.85;100.00;99686.59;5054591;28;20108;-56
2023/03/31 04:11:18;;;;;;;18.75;4.35;;;;;;;8.82;100.00;99680.53;5053786;28;20037;-56
2023/03/31 04:13:44;;;;;;;19.13;4.22;;;;;;;8.81;100.00;99679.66;5053811;28;20111;-56
2023/03/31 04:16:10;;;;;;;20.50;4.10;;;;;;;8.79;100.00;99676.22;5054243;28;20106;-56
2023/03/31 04:18:41;;;;;;;19.77;4.25;;;;;;;8.76;100.00;99671.00;5054012;28;20021;-56
2023/03/31 04:21:11;;;;;;;23.52;4.53;;;;;;;8.75;100.00;99668.44;5053596;28;20028;-56
2023/03/31 04:23:47;;;;;;;21.48;4.07;;;;;;;8.73;100.00;99653.00;5054430;28;20048;-56
2023/03/31 04:26:14;;;;;;;22.98;4.40;;;;;;;8.72;100.00;99648.69;5053549;28;20100;-56
2023/03/31 04:28:41;;;;;;;26.50;4.50;;;;;;;8.72;100.00;99643.56;5053779;28;20029;-56
2023/03/31 04:31:09;;;;;;;19.45;4.00;;;;;;;8.70;100.00;99646.09;5053592;28;20284;-56
2023/03/31 04:33:37;;;;;;;19.08;4.47;;;;;;;8.70;100.00;99634.94;5053482;28;20040;-56
2023/03/31 04:36:05;;;;;;;25.38;4.43;;;;;;;8.69;100.00;99622.97;5053507;28;20426;-56
2023/03/31 04:38:32;;;;;;;20.13;3.25;;;;;;;8.67;100.00;99620.34;5053891;28;20021;-56
2023/03/31 04:40:58;;;;;;;20.98;4.75;;;;;;;8.66;100.00;99608.34;5052861;28;20017;-56
2023/03/31 04:43:24;;;;;;;17.42;3.97;;;;;;;8.68;100.00;99610.94;5053928;28;20025;-56
2023/03/31 04:45:50;;;;;;;16.67;4.15;;;;;;;8.67;100.00;99599.78;5053821;28;20113;-57
2023/03/31 04:48:15;;;;;;;16.27;3.90;;;;;;;8.67;100.00;99596.38;5052723;28;20041;-56
2023/03/31 04:50:40;;;;;;;17.00;3.90;;;;;;;8.67;100.00;99594.66;5053705;28;20376;-56
2023/03/31 04:53:06;;;;;;;20.25;3.60;;;;;;;8.66;100.00;99587.81;5053158;28;20048;-57
2023/03/31 04:55:31;;;;;;;17.60;3.88;;;;;;;8.66;100.00;99579.22;5053456;28;20079;-56
2023/03/31 04:57:57;;;;;;;19.23;3.95;;;;;;;8.66;100.00;99577.53;5053188;28;20025;-56
2023/03/31 05:00:22;;;;;;;19.40;3.92;;;;;;;8.65;100.00;99562.97;5053502;28;20037;-56
2023/03/31 05:02:48;;;;;;;19.27;4.32;;;;;;;8.64;100.00;99565.50;5052741;28;20049;-56
2023/03/31 05:05:13;;;;;;;21.08;5.03;;;;;;;8.65;100.00;99562.97;5053240;28;20106;-56
2023/03/31 05:07:39;;;;;;;21.42;4.80;;;;;;;8.65;100.00;99564.66;5053123;28;20078;-56
2023/03/31 05:10:05;;;;;;;19.23;4.18;;;;;;;8.63;100.00;99556.06;5052381;28;20025;-57
2023/03/31 05:12:35;;;;;;;19.00;4.60;;;;;;;8.61;100.00;99550.91;5053264;28;20461;-56
2023/03/31 05:15:00;;;;;;;16.05;3.75;;;;;;;8.61;100.00;99542.31;5052868;28;20029;-57
2023/03/31 05:17:26;;;;;;;17.60;4.80;;;;;;;8.60;100.00;99533.75;5052416;28;20431;-56
2023/03/31 05:19:51;;;;;;;12.60;3.80;;;;;;;8.58;100.00;99517.44;5053118;28;20036;-56
2023/03/31 05:22:19;;;;;;;20.40;4.35;;;;;;;8.57;100.00;99526.88;5052354;28;20052;-56
2023/03/31 05:24:45;;;;;;;15.23;3.83;;;;;;;8.59;100.00;99519.19;5052698;28;20032;-56
2023/03/31 05:27:10;;;;;;;16.63;4.00;;;;;;;8.61;100.00;99516.63;5052934;28;20036;-56
2023/03/31 05:29:36;;;;;;;16.48;4.20;;;;;;;8.62;100.00;99513.25;5052896;28;20028;-56
2023/03/31 05:32:01;;;;;;;13.98;3.80;;;;;;;8.64;100.00;99511.56;5052234;28;20029;-56
2023/03/31 05:34:27;;;;;;;15.52;3.78;;;;;;;8.61;100.00;99502.13;5052941;28;20432;-56
2023/03/31 05:36:52;;;;;;;16.50;3.50;;;;;;;8.61;100.00;99501.22;5052117;28;20037;-56
2023/03/31 05:39:18;;;;;;;13.85;3.53;;;;;;;8.61;100.00;99499.53;5052607;28;20416;-56
2023/03/31 05:41:43;;;;;;;14.75;3.70;;;;;;;8.61;100.00;99493.53;5053005;28;20036;-56
2023/03/31 05:44:09;;;;;;;13.80;3.60;;;;;;;8.60;100.00;99496.94;5051782;28;20094;-56
2023/03/31 05:46:34;;;;;;;15.23;4.32;;;;;;;8.60;100.00;99494.34;5052792;28;20079;-56
2023/03/31 05:48:59;;;;;;;17.63;3.90;;;;;;;8.59;100.00;99488.38;5052720;28;20021;-56
2023/03/31 05:51:25;;;;;;;13.43;3.55;;;;;;;8.58;100.00;99486.63;5051744;28;20109;-56
2023/03/31 05:53:50;;;;;;;13.30;3.70;;;;;;;8.57;100.00;99488.34;5052926;28;20472;-56
2023/03/31 05:56:15;;;;;;;12.50;3.30;;;;;;;8.59;100.00;99483.25;5052391;28;20047;-55
2023/03/31 05:58:41;;;;;;;17.58;3.53;;;;;;;8.59;100.00;99482.38;5052433;28;20055;-56
2023/03/31 06:01:18;;;;;;;11.30;3.38;;;;;;;8.57;100.00;99485.78;5052218;28;20041;-57
2023/03/31 06:03:44;;;;;;;11.48;3.60;;;;;;;8.56;100.00;99478.91;5052355;28;20025;-56
2023/03/31 06:06:12;;;;;;;16.23;3.42;;;;;;;8.56;100.00;99478.91;5051742;28;20025;-57
2023/03/31 06:08:37;;;;;;;15.43;3.90;;;;;;;8.55;100.00;99482.31;5052853;28;20029;-56
2023/03/31 06:11:05;;;;;;;15.25;3.92;;;;;;;8.53;100.00;99471.19;5051795;28;20055;-56
2023/03/31 06:13:30;;;;;;;15.27;3.60;;;;;;;8.53;100.00;99485.69;5052212;28;20021;-57
2023/03/31 06:15:58;;;;;;;16.55;4.53;;;;;;;8.51;100.00;99472.84;5052266;28;20028;-56
2023/03/31 06:18:23;;;;;;;;;;;;;;;8.57;100.00;99465.25;5052705;28;20060;-56
2023/03/31 06:20:50;;;;;;;18.77;3.97;;;;;;;8.46;100.00;99459.06;5051937;28;19939;-57
2023/03/31 06:23:15;;;;;;;16.85;3.88;;;;;;;8.44;100.00;99458.13;5051962;28;20418;-56
2023/03/31 06:25:40;;;;;;;17.42;4.40;;;;;;;8.43;100.00;99455.56;5052315;28;20029;-55
2023/03/31 06:28:06;;;;;;;17.20;4.55;;;;;;;8.44;100.00;99455.56;5051719;28;20032;-56
2023/03/31 06:30:32;;;;;;;17.10;4.10;;;;;;;8.44;100.00;99452.16;5056036;28;20485;-56
2023/03/31 06:32:57;;;;;;;19.02;4.63;;;;;;;8.44;100.00;99452.16;5055219;28;20105;-56
2023/03/31 06:35:22;;;;;;;18.65;4.65;;;;;;;8.41;100.00;99458.09;5056174;28;20499;-56
2023/03/31 06:37:48;;;;;;;16.48;3.88;;;;;;;8.40;100.00;99457.25;5056375;28;20017;-56
2023/03/31 06:40:13;;;;;;;21.17;5.25;;;;;;;8.40;100.00;99440.97;5055298;28;20206;-55
2023/03/31 06:42:38;;;;;;;16.00;4.68;;;;;;;8.39;100.00;99434.09;5056219;28;20373;-56
2023/03/31 06:45:04;;;;;;;18.52;5.07;;;;;;;8.42;100.00;99426.47;5055653;28;20021;-54
2023/03/31 06:47:29;;;;;;;18.83;4.95;;;;;;;8.41;100.00;99429.84;5055173;28;20029;-54
2023/03/31 06:49:55;;;;;;;17.27;5.70;;;;;;;8.41;100.00;99422.16;5055394;28;20095;-54
2023/03/31 06:52:20;;;;;;;19.27;5.10;;;;;;;8.44;100.00;99422.19;5055855;28;20496;-55
2023/03/31 06:54:45;;;;;;;10.63;4.50;;;;;;;8.48;100.00;99420.56;5055334;28;20057;-56
2023/03/31 06:57:12;;;;;;;11.90;4.72;;;;;;;8.51;100.00;99411.22;5055686;28;20028;-54
2023/03/31 06:59:37;;;;;;;16.52;5.10;;;;;;;8.57;100.00;99418.13;5055691;28;20048;-54
2023/03/31 07:02:03;;;;;;;11.48;5.47;;;;;;;8.61;100.00;99406.22;5054653;28;20138;-54
2023/03/31 07:04:28;;;;;;;13.60;6.15;;;;;;;8.62;100.00;99428.50;5055716;28;20039;-55
2023/03/31 07:06:53;;;;;;;17.02;6.30;;;;;;;8.61;100.00;99437.91;5055233;28;20025;-55
2023/03/31 07:09:20;;;;;;;17.20;7.70;;;;;;;8.60;100.00;99432.72;5054903;28;20029;-55
2023/03/31 07:11:45;;;;;;;9.57;5.03;;;;;;;8.55;100.00;99410.41;5055648;28;20041;-55
2023/03/31 07:14:11;;;;;;;12.27;4.53;;;;;;;8.58;100.00;99414.72;5054901;28;20114;-55
2023/03/31 07:16:36;;;;;;;8.82;4.18;;;;;;;8.63;100.00;99402.81;5054537;28;20075;-54
2023/03/31 07:19:02;;;;;;;9.20;4.15;;;;;;;8.68;100.00;99398.59;5055253;28;20427;-53
2023/03/31 07:21:27;;;;;;;11.80;5.10;;;;;;;8.71;100.00;99392.66;5055025;28;20033;-50
2023/03/31 07:23:53;;;;;;;10.07;4.97;;;;;;;8.74;100.00;99390.16;5055103;28;20028;-54
2023/03/31 07:26:18;;;;;;;15.00;5.90;;;;;;;8.76;100.00;99392.72;5055323;28;20127;-54
2023/03/31 07:28:43;;;;;;;17.40;6.65;;;;;;;8.77;100.00;99389.31;5055102;28;20029;-52
2023/03/31 07:31:13;;;;;;;17.95;6.75;;;;;;;8.77;100.00;99385.03;5054279;28;20028;-53
2023/03/31 07:33:39;;;;;;;20.27;6.70;;;;;;;8.81;100.00;99380.81;5055025;28;20029;-53
2023/03/31 07:36:05;;;;;;;15.93;5.70;;;;;;;8.83;100.00;99386.81;5054646;28;20028;-53
2023/03/31 07:38:31;;;;;;;14.55;5.65;;;;;;;8.88;100.00;99375.78;5054404;28;20504;-54
2023/03/31 07:40:56;;;;;;;17.35;4.45;;;;;;;8.94;100.00;99376.69;5054464;28;20033;-55
2023/03/31 07:43:21;;;;;;;18.25;4.60;;;;;;;8.99;100.00;99375.03;5054302;28;20074;-54
2023/03/31 07:45:47;;;;;;;17.55;4.50;;;;;;;9.04;100.00;99373.38;5054913;28;20025;-53
2023/03/31 07:48:12;;;;;;;18.52;4.13;;;;;;;9.10;100.00;99365.72;5054694;28;20384;-54
2023/03/31 07:50:37;;;;;;;17.92;4.05;;;;;;;9.15;100.00;99366.66;5054231;28;20132;-52
2023/03/31 07:53:03;;;;;;;18.58;4.55;;;;;;;9.21;100.00;99371.88;5054460;28;20033;-54
2023/03/31 07:55:28;;;;;;;19.00;4.43;;;;;;;9.28;100.00;99366.78;5054567;28;20033;-53
2023/03/31 07:57:53;;;;;;;17.02;4.75;;;;;;;9.35;100.00;99368.59;5054020;28;20029;-54
2023/03/31 08:00:20;;;;;;;19.77;4.47;;;;;;;9.44;100.00;99363.53;5054737;28;20042;-53
2023/03/31 08:02:45;;;;;;;18.20;4.72;;;;;;;9.51;100.00;99362.75;5054256;28;20187;-54
2023/03/31 08:05:12;;;;;;;21.30;4.70;;;;;;;9.55;100.00;99361.94;5053928;28;20494;-53
2023/03/31 08:07:40;;;;;;;17.05;4.85;;;;;;;9.56;100.00;99361.06;5054727;28;20025;-53
2023/03/31 08:10:07;;;;;;;;;;;;;;;9.64;100.00;99361.16;5054442;28;20464;-54
2023/03/31 08:12:32;;;;;;;21.50;5.60;;;;;;;9.62;100.00;99351.69;5053605;28;20338;-53
2023/03/31 08:14:57;;;;;;;22.83;5.55;;;;;;;9.65;100.00;99352.59;5054180;28;20472;-52
2023/03/31 08:17:23;;;;;;;23.48;5.82;;;;;;;9.68;100.00;99351.75;5054128;28;20480;-53
2023/03/31 08:19:49;;;;;;;28.23;6.15;;;;;;;9.71;100.00;99351.81;5053930;28;20487;-54
2023/03/31 08:22:15;;;;;;;21.20;5.60;;;;;;;9.76;100.00;99355.28;5054159;28;20033;-53
2023/03/31 08:24:40;;;;;;;27.85;6.78;;;;;;;9.81;100.00;99347.59;5054539;28;20024;-52
2023/03/31 08:27:05;;;;;;;28.33;5.85;;;;;;;9.83;100.00;99351.91;5053310;28;20099;-54
2023/03/31 08:29:31;;;;;;;26.67;5.82;;;;;;;9.87;100.00;99347.63;5054154;28;20380;-53
2023/03/31 08:31:56;;;;;;;24.48;6.47;;;;;;;9.93;100.00;99341.66;5053366;28;20032;-52
2023/03/31 08:34:21;;;;;;;26.27;6.32;;;;;;;9.98;100.00;99350.28;5053645;28;20476;-54
2023/03/31 08:36:47;;;;;;;24.52;6.22;;;;;;;10.02;100.00;99341.75;5053886;28;20025;-54
2023/03/31 08:39:13;;;;;;;25.17;5.90;;;;;;;10.08;100.00;99346.94;5053514;28;20444;-52
2023/03/31 08:42:01;;;;;;;26.00;6.30;;;;;;;10.13;100.00;99355.56;5053419;28;20515;-53
2023/03/31 08:44:43;;;;;;;28.25;6.28;;;;;;;10.17;100.00;99347.03;5053643;28;20024;-53
2023/03/31 08:47:15;;;;;;;38.58;6.63;;;;;;;10.24;100.00;99352.19;5053106;28;20028;-52
2023/03/31 08:49:47;;;;;;;30.05;5.55;;;;;;;10.24;100.00;99344.47;5053611;28;20461;-54
2023/03/31 08:52:22;;;;;;;24.27;5.85;;;;;;;10.25;100.00;99344.50;5052434;28;20028;-52
2023/03/31 08:54:52;;;;;;;26.40;5.93;;;;;;;10.29;100.00;99343.66;5053217;28;20025;-52
2023/03/31 08:57:23;;;;;;;24.60;5.53;;;;;;;10.31;100.00;99343.66;5053424;28;20025;-53
2023/03/31 08:59:49;;;;;;;25.40;6.30;;;;;;;10.34;100.00;99338.53;5053574;28;20028;-52
2023/03/31 09:02:51;;;;;;;31.35;6.45;;;;;;;10.42;100.00;99336.91;5052525;28;20122;-52
2023/03/31 09:05:33;;;;;;;29.30;6.90;;;;;;;10.48;100.00;99329.22;5053011;28;20380;-52
2023/03/31 09:08:37;;;;;;;28.73;6.25;;;;;;;10.61;100.00;99339.56;5052782;28;20060;-52
2023/03/31 09:11:09;;;;;;;24.02;5.72;;;;;;;10.66;100.00;99335.31;5053074;28;20044;-53
2023/03/31 09:13:44;;;;;;;25.05;5.70;;;;;;;10.73;100.00;99329.34;5053020;28;20051;-52
2023/03/31 09:16:58;;;;;;;25.95;5.28;;;;;;;10.87;100.00;99330.25;5052594;28;20032;-51
2023/03/31 09:19:42;;;;;;;26.98;5.50;;;;;;;10.90;100.00;99318.22;5053075;28;20036;-53
2023/03/31 09:22:21;;;;;;;25.40;6.10;;;;;;;10.95;100.00;99329.41;5052244;28;20032;-53
2023/03/31 09:25:10;;;;;;;26.65;5.38;;;;;;;11.01;100.00;99326.84;5053075;28;20484;-53
2023/03/31 09:27:41;;;;;;;29.17;6.15;;;;;;;11.02;100.00;99323.44;5052753;28;20431;-53
2023/03/31 09:30:19;;;;;;;24.35;6.13;;;;;;;11.07;100.00;99326.03;5052067;28;20465;-54
2023/03/31 09:32:46;;;;;;;19.48;4.82;;;;;;;11.07;100.00;99319.16;5053308;28;20056;-52
2023/03/31 09:35:20;;;;;;;22.05;5.18;;;;;;;11.11;100.00;99322.59;5052481;28;20029;-53
2023/03/31 09:37:46;;;;;;;27.85;6.00;;;;;;;11.09;100.00;99308.84;5052513;28;20136;-53
2023/03/31 09:40:18;;;;;;;28.05;6.43;;;;;;;11.11;100.00;99310.56;5052594;28;20048;-54
2023/03/31 09:42:45;;;;;;;22.05;4.85;;;;;;;11.14;100.00;99309.69;5052579;28;20052;-53
2023/03/31 09:45:15;;;;;;;25.35;5.63;;;;;;;11.22;100.00;99304.56;5051919;28;20106;-52
2023/03/31 09:47:45;;;;;;;20.70;5.68;;;;;;;11.22;100.00;99309.72;5052637;28;20020;-54
2023/03/31 09:50:11;;;;;;;19.02;4.60;;;;;;;11.19;100.00;99298.56;5052076;28;20021;-53
2023/03/31 09:52:40;;;;;;;21.88;4.97;;;;;;;11.23;100.00;99311.44;5052752;28;20028;-53
2023/03/31 09:55:18;;;;;;;20.20;4.78;;;;;;;11.40;100.00;99299.47;5052209;28;20476;-53
2023/03/31 09:57:44;;;;;;;16.80;4.30;;;;;;;11.46;100.00;99291.69;5052019;28;20028;-52
2023/03/31 10:00:15;;;;;;;19.77;4.85;;;;;;;11.49;100.00;99288.25;5052331;28;20025;-52
2023/03/31 10:02:49;;;;;;;21.35;4.65;;;;;;;11.62;100.00;99289.13;5052822;28;20076;-53
2023/03/31 10:05:22;;;;;;;18.17;4.20;;;;;;;11.78;100.00;99285.69;5056059;28;20363;-54
2023/03/31 10:07:48;;;;;;;21.77;4.70;;;;;;;11.83;100.00;99283.97;5056647;28;20056;-53
2023/03/31 10:10:27;;;;;;;14.80;4.15;;;;;;;11.81;100.00;99290.88;5056352;28;20100;-53
2023/03/31 10:12:53;;;;;;;18.08;5.05;;;;;;;11.92;100.00;99287.41;5056451;28;20120;-54
2023/03/31 10:15:24;;;;;;;19.95;5.03;;;;;;;12.03;100.00;99296.03;5056670;28;20103;-53
2023/03/31 10:17:49;;;;;;;18.10;4.28;;;;;;;11.97;98.67;99285.72;5056550;28;20096;-54
2023/03/31 10:20:40;;;;;;;17.13;4.07;;;;;;;11.84;96.20;99285.69;5055648;28;20108;-53
2023/03/31 10:23:15;;;;;;;17.77;4.28;;;;;;;11.77;96.39;99278.81;5055586;28;20037;-52
2023/03/31 10:25:41;;;;;;;16.98;3.88;;;;;;;11.73;97.35;99264.19;5056037;28;20028;-53
2023/03/31 10:28:12;;;;;;;17.90;3.75;;;;;;;11.92;100.00;99274.50;5056066;28;20021;-52
2023/03/31 10:30:39;;;;;;;16.52;4.55;;;;;;;11.99;97.50;99269.38;5056043;28;20055;-53
2023/03/31 10:33:12;;;;;;;15.55;4.10;;;;;;;12.17;98.04;99267.59;5055493;28;20052;-53
2023/03/31 10:35:38;;;;;;;13.93;3.83;;;;;;;12.17;95.79;99260.72;5056184;28;20476;-53
2023/03/31 10:38:13;;;;;;;18.70;4.05;;;;;;;12.05;96.94;99259.91;5055822;28;20052;-54
2023/03/31 10:40:47;;;;;;;16.65;3.80;;;;;;;11.89;97.54;99266.75;5055589;28;20469;-52
2023/03/31 10:43:15;;;;;;;16.17;4.10;;;;;;;11.63;97.50;99265.06;5055824;28;20032;-53
2023/03/31 10:45:55;;;;;;;17.67;4.30;;;;;;;11.54;99.28;99263.31;5055975;28;20116;-53
2023/03/31 10:48:36;;;;;;;18.02;4.47;;;;;;;11.51;100.00;99251.28;5055722;28;20104;-53
2023/03/31 10:51:20;;;;;;;21.33;4.97;;;;;;;11.56;100.00;99258.19;5055478;28;20041;-53
2023/03/31 10:53:50;;;;;;;19.38;5.60;;;;;;;11.64;98.25;99262.47;5055374;28;20029;-54
2023/03/31 10:56:28;;;;;;;20.27;5.28;;;;;;;11.83;99.36;99258.16;5055746;28;20021;-53
2023/03/31 10:59:02;;;;;;;;;;;;;;;11.94;98.03;99254.69;5056031;28;20136;-53
2023/03/31 11:01:27;;;;;;;19.77;4.47;;;;;;;11.92;96.78;99251.28;5055116;28;19998;-53
2023/03/31 11:04:14;;;;;;;18.87;4.70;;;;;;;12.00;95.25;99244.41;5055756;28;20048;-52
2023/03/31 11:07:20;;;;;;;19.83;5.32;;;;;;;12.02;95.60;99233.19;5055440;28;20783;-53
2023/03/31 11:10:09;;;;;;;24.00;10.50;;;;;;;11.87;98.04;99243.53;5055733;28;20059;-53
2023/03/31 11:13:01;;;;;;;18.70;5.18;;;;;;;11.69;99.91;99249.56;5055276;28;20432;-53
2023/03/31 11:15:37;;;;;;;24.05;5.25;;;;;;;11.58;99.99;99253.88;5054226;28;20491;-53
2023/03/31 11:18:17;;;;;;;31.25;8.65;;;;;;;11.49;100.00;99236.66;5055210;28;20104;-54
2023/03/31 11:21:11;;;;;;;29.23;10.02;;;;;;;11.53;100.00;99239.25;5055115;28;20029;-54
2023/03/31 11:24:01;;;;;;;22.88;5.38;;;;;;;11.58;99.93;99231.53;5055016;28;20052;-53
2023/03/31 11:26:52;;;;;;;25.15;6.07;;;;;;;11.71;99.90;99227.22;5054939;28;20533;-53
2023/03/31 11:29:30;;;;;;;28.55;8.38;;;;;;;12.09;98.86;99231.47;5054489;28;20460;-51
2023/03/31 11:32:14;;;;;;;20.90;6.53;;;;;;;12.25;95.73;99229.72;5055107;28;20024;-54
2023/03/31 11:34:58;;;;;;;22.85;5.00;;;;;;;12.38;96.38;99220.16;5055150;28;20036;-55
2023/03/31 11:37:48;;;;;;;18.15;4.28;;;;;;;12.26;91.87;99225.38;5054468;28;20041;-54
2023/03/31 11:40:31;;;;;;;24.65;5.90;;;;;;;12.55;95.10;99212.34;5055092;28;20110;-54
2023/03/31 11:43:11;;;;;;;29.42;6.82;;;;;;;12.59;91.47;99215.75;5054182;28;20049;-51